Time;durP1;ratioP1;P1;durP2;ratioP2;P2;SDS_P1;SDS_P2;PMS_P1;PMS_P2;Temp;Humidity;BMP_temperature;BMP_pressure;BME280_temperature;BME280_humidity;BME280_pressure;Samples;Min_cycle;Max_cycle;Signal;HPM_P1;HPM_P2
2023/07/08 00:00:26;;;;;;;11.43;5.75;;;;;;;18.26;100.00;93261.13;4955043;28;20035;-82
2023/07/08 00:02:52;;;;;;;10.52;6.10;;;;;;;18.27;100.00;93263.47;4954868;28;20049;-81
2023/07/08 00:05:20;;;;;;;12.45;6.80;;;;;;;18.30;100.00;93259.41;4954902;28;20046;-82
2023/07/08 00:07:47;;;;;;;13.98;6.55;;;;;;;18.33;100.00;93258.00;4954815;29;20042;-82
2023/07/08 00:10:15;;;;;;;13.95;5.85;;;;;;;18.37;100.00;93257.03;4955099;28;20039;-82
2023/07/08 00:12:46;;;;;;;13.52;5.82;;;;;;;18.40;100.00;93256.44;4956790;28;20031;-82
2023/07/08 00:15:11;;;;;;;9.82;5.30;;;;;;;18.42;100.00;93264.06;4955718;28;20038;-82
2023/07/08 00:17:37;;;;;;;9.70;5.25;;;;;;;18.43;100.00;93253.13;4956794;28;20027;-82
2023/07/08 00:20:18;;;;;;;14.45;5.93;;;;;;;18.45;100.00;93252.81;4959935;28;20588;-82
2023/07/08 00:22:46;;;;;;;13.85;5.93;;;;;;;18.46;100.00;93257.81;4938225;29;20038;-82
2023/07/08 00:25:14;;;;;;;9.02;5.03;;;;;;;18.47;100.00;93255.94;4944337;28;20062;-82
2023/07/08 00:27:40;;;;;;;11.50;5.65;;;;;;;18.49;100.00;93251.88;4955809;29;20053;-81
2023/07/08 00:30:30;;;;;;;10.50;5.68;;;;;;;18.48;100.00;93250.31;4954575;29;20036;-81
2023/07/08 00:32:57;;;;;;;9.32;4.45;;;;;;;18.49;100.00;93249.22;4947698;29;20051;-81
2023/07/08 00:35:34;;;;;;;14.82;5.38;;;;;;;18.49;100.00;93253.75;4961463;28;20086;-81
2023/07/08 00:38:03;;;;;;;13.88;6.00;;;;;;;18.51;100.00;93251.56;4957663;28;20043;-82
2023/07/08 00:40:31;;;;;;;15.25;6.10;;;;;;;18.49;100.00;93246.59;4957248;28;20063;-82
2023/07/08 00:43:00;;;;;;;10.32;6.03;;;;;;;18.52;100.00;93245.94;4959433;29;20031;-81
2023/07/08 00:45:37;;;;;;;15.45;7.05;;;;;;;18.54;100.00;93253.59;4959138;28;20073;-81
2023/07/08 00:48:38;;;;;;;13.27;6.78;;;;;;;18.55;100.00;93255.13;4973120;28;20055;-82
2023/07/08 00:51:10;;;;;;;14.57;5.82;;;;;;;18.56;100.00;93251.41;4952631;28;20035;-82
2023/07/08 00:53:37;;;;;;;12.40;6.18;;;;;;;18.55;100.00;93257.00;4958387;29;20043;-82
2023/07/08 00:56:16;;;;;;;12.45;5.80;;;;;;;18.54;100.00;93252.81;4957206;28;20042;-81
2023/07/08 00:58:55;;;;;;;10.15;4.63;;;;;;;18.51;100.00;93262.19;4938393;29;20250;-82
2023/07/08 01:01:21;;;;;;;15.02;6.00;;;;;;;18.51;100.00;93259.53;4950103;28;20090;-82
2023/07/08 01:03:57;;;;;;;12.77;6.18;;;;;;;18.48;100.00;93250.31;4959268;28;20058;-82
2023/07/08 01:06:31;;;;;;;12.00;6.00;;;;;;;18.48;100.00;93252.97;4957600;28;20043;-82
2023/07/08 01:08:59;;;;;;;12.00;6.13;;;;;;;18.46;100.00;93254.38;4957332;28;20099;-82
2023/07/08 01:11:25;;;;;;;10.93;6.32;;;;;;;18.46;100.00;93260.47;4964959;28;20130;-82
2023/07/08 01:13:51;;;;;;;13.88;6.80;;;;;;;18.44;100.00;93260.00;4958553;28;20075;-82
2023/07/08 01:16:17;;;;;;;13.20;6.28;;;;;;;18.46;100.00;93263.13;4962138;28;20027;-82
2023/07/08 01:18:52;;;;;;;15.80;6.88;;;;;;;18.45;100.00;93256.25;4973288;28;20054;-82
2023/07/08 01:21:38;;;;;;;14.75;8.07;;;;;;;18.43;100.00;93255.00;4957092;29;20047;-81
2023/07/08 01:24:10;;;;;;;13.00;6.68;;;;;;;18.42;100.00;93254.25;4957409;28;20067;-82
2023/07/08 01:26:41;;;;;;;11.60;6.22;;;;;;;18.42;100.00;93248.16;4964345;28;20038;-82
2023/07/08 01:29:07;;;;;;;17.00;6.77;;;;;;;18.42;100.00;93243.63;4958374;28;20446;-82
2023/07/08 01:31:34;;;;;;;12.95;7.00;;;;;;;18.41;100.00;93236.00;4958782;28;20321;-81
2023/07/08 01:34:00;;;;;;;12.90;6.88;;;;;;;18.39;100.00;93238.94;4942398;29;20035;-81
2023/07/08 01:36:31;;;;;;;13.43;6.53;;;;;;;18.37;100.00;93235.84;4956218;28;20117;-82
2023/07/08 01:38:56;;;;;;;14.48;5.95;;;;;;;18.37;100.00;93233.19;4957145;28;20044;-82
2023/07/08 01:41:22;;;;;;;15.40;6.22;;;;;;;18.35;100.00;93218.69;4956974;28;20040;-82
2023/07/08 01:43:48;;;;;;;10.63;6.55;;;;;;;18.33;100.00;93219.03;4958674;28;20074;-82
2023/07/08 01:46:19;;;;;;;14.63;5.63;;;;;;;18.29;100.00;93224.19;4956031;28;20069;-82
2023/07/08 01:48:54;;;;;;;9.02;5.53;;;;;;;18.28;100.00;93237.72;4956616;29;20052;-81
2023/07/08 01:51:21;;;;;;;12.98;5.53;;;;;;;18.26;100.00;93238.06;4956372;28;20073;-81
2023/07/08 01:53:47;;;;;;;10.27;5.45;;;;;;;18.25;100.00;93233.06;4956777;28;20035;-82
2023/07/08 01:56:14;;;;;;;12.63;5.80;;;;;;;18.23;100.00;93229.97;4956811;28;20054;-82
2023/07/08 01:58:40;;;;;;;14.05;6.00;;;;;;;18.23;100.00;93232.59;4956857;28;20069;-81
2023/07/08 02:01:06;;;;;;;11.68;6.25;;;;;;;18.23;100.00;93233.38;4957472;28;20039;-82
2023/07/08 02:03:32;;;;;;;11.88;6.30;;;;;;;18.23;100.00;93233.38;4956446;29;20027;-81
2023/07/08 02:05:58;;;;;;;15.00;7.22;;;;;;;18.27;100.00;93228.25;4956820;28;20070;-82
2023/07/08 02:08:24;;;;;;;18.35;7.32;;;;;;;18.27;100.00;93228.25;4968497;28;20035;-82
2023/07/08 02:10:53;;;;;;;14.75;6.50;;;;;;;18.29;100.00;93228.72;4956597;28;20042;-81
2023/07/08 02:13:20;;;;;;;12.15;7.00;;;;;;;18.30;100.00;93224.94;4956215;29;20039;-82
2023/07/08 02:15:47;;;;;;;14.77;6.03;;;;;;;18.29;100.00;93221.53;4944980;28;20043;-81
2023/07/08 02:18:13;;;;;;;13.35;6.38;;;;;;;18.28;100.00;93224.47;4950666;29;20042;-81
2023/07/08 02:20:39;;;;;;;13.13;6.43;;;;;;;18.26;100.00;93231.97;4963193;28;20035;-81
2023/07/08 02:23:04;;;;;;;10.75;5.53;;;;;;;18.24;100.00;93226.22;4942808;29;20131;-81
2023/07/08 02:25:30;;;;;;;11.32;5.78;;;;;;;18.23;100.00;93220.13;4937919;29;20048;-81
2023/07/08 02:27:57;;;;;;;14.35;6.53;;;;;;;18.21;100.00;93216.25;4952390;29;20031;-81
2023/07/08 02:30:26;;;;;;;14.13;7.00;;;;;;;18.21;100.00;93218.91;4957613;28;20544;-81
2023/07/08 02:32:58;;;;;;;12.07;6.60;;;;;;;18.19;100.00;93221.06;4951986;29;20044;-81
2023/07/08 02:35:29;;;;;;;14.20;6.53;;;;;;;18.16;100.00;93225.13;4954679;28;20082;-81
2023/07/08 02:37:56;;;;;;;15.02;6.63;;;;;;;18.18;100.00;93225.59;4956130;28;20055;-81
2023/07/08 02:40:23;;;;;;;14.00;6.43;;;;;;;18.18;100.00;93211.59;4955424;29;20110;-81
2023/07/08 02:42:48;;;;;;;13.82;6.78;;;;;;;18.19;100.00;93218.44;4956514;28;20035;-81
2023/07/08 02:45:15;;;;;;;12.60;7.25;;;;;;;18.18;100.00;93217.66;4939611;29;20031;-81
2023/07/08 02:47:41;;;;;;;14.88;6.70;;;;;;;18.18;100.00;93222.19;4944589;28;20135;-81
2023/07/08 02:50:09;;;;;;;14.45;6.80;;;;;;;18.19;100.00;93229.03;4936910;29;20147;-81
2023/07/08 02:52:35;;;;;;;20.63;6.10;;;;;;;18.18;100.00;93232.78;4921086;29;20058;-81
2023/07/08 02:55:00;;;;;;;11.88;6.18;;;;;;;18.19;100.00;93224.50;4936915;29;20103;-81
2023/07/08 02:57:26;;;;;;;16.25;7.22;;;;;;;18.19;100.00;93239.63;4937129;29;20035;-81
2023/07/08 02:59:51;;;;;;;10.98;6.25;;;;;;;18.20;100.00;93238.56;4920363;29;20036;-82
2023/07/08 03:02:17;;;;;;;11.35;6.03;;;;;;;18.20;100.00;93235.91;4937585;29;20113;-82
2023/07/08 03:04:43;;;;;;;10.95;6.28;;;;;;;18.21;100.00;93238.22;4919726;29;20032;-81
2023/07/08 03:07:11;;;;;;;13.52;6.55;;;;;;;18.20;100.00;93236.66;4920460;29;20043;-82
2023/07/08 03:09:40;;;;;;;10.93;6.47;;;;;;;18.21;100.00;93234.78;4936667;29;20040;-82
2023/07/08 03:12:09;;;;;;;12.10;6.38;;;;;;;18.22;100.00;93233.72;4937316;29;20039;-81
2023/07/08 03:14:36;;;;;;;14.43;6.13;;;;;;;18.22;100.00;93241.66;4919154;29;20040;-81
2023/07/08 03:17:03;;;;;;;14.35;6.82;;;;;;;18.24;100.00;93242.13;4919822;29;20112;-81
2023/07/08 03:19:29;;;;;;;17.90;7.25;;;;;;;18.24;100.00;93236.84;4933287;29;20027;-80
2023/07/08 03:21:54;;;;;;;12.82;6.50;;;;;;;18.28;100.00;93238.53;4935237;29;20087;-82
2023/07/08 03:24:20;;;;;;;16.85;6.60;;;;;;;18.29;100.00;93240.06;4937154;29;20059;-81
2023/07/08 03:26:47;;;;;;;13.27;6.25;;;;;;;18.30;100.00;93236.31;4925229;29;20407;-81
2023/07/08 03:29:14;;;;;;;11.23;6.00;;;;;;;18.30;100.00;93230.25;4935527;29;20031;-81
2023/07/08 03:31:41;;;;;;;10.18;5.65;;;;;;;18.30;100.00;93241.63;4919902;29;20498;-81
2023/07/08 03:34:10;;;;;;;12.52;5.63;;;;;;;18.30;100.00;93240.84;4937143;29;20512;-81
2023/07/08 03:36:50;;;;;;;11.90;5.80;;;;;;;18.28;100.00;93238.53;4937166;29;20043;-81
2023/07/08 03:39:23;;;;;;;8.67;5.13;;;;;;;18.28;100.00;93237.72;4921555;29;20130;-81
2023/07/08 03:41:50;;;;;;;13.10;5.27;;;;;;;18.23;100.00;93230.72;4937789;29;20546;-81
2023/07/08 03:44:16;;;;;;;8.32;5.38;;;;;;;18.17;100.00;93216.13;4908280;29;20311;-81
2023/07/08 03:46:44;;;;;;;10.52;5.63;;;;;;;18.14;100.00;93215.94;4917078;29;20036;-80
2023/07/08 03:49:10;;;;;;;12.27;5.50;;;;;;;18.04;100.00;93217.06;4922094;29;20398;-81
2023/07/08 03:51:39;;;;;;;9.82;5.65;;;;;;;17.94;100.00;93218.16;4934848;29;20569;-81
2023/07/08 03:54:06;;;;;;;9.20;5.45;;;;;;;17.92;100.00;93211.63;4937107;29;20429;-81
2023/07/08 03:56:34;;;;;;;10.25;5.35;;;;;;;17.92;100.00;93209.75;4929315;29;20051;-82
2023/07/08 03:59:00;;;;;;;9.40;5.45;;;;;;;17.90;100.00;93214.59;4936229;29;20191;-81
2023/07/08 04:01:26;;;;;;;9.60;5.30;;;;;;;17.88;100.00;93211.50;4936176;29;20028;-81
2023/07/08 04:03:55;;;;;;;10.05;5.60;;;;;;;17.86;100.00;93197.78;4920227;29;20383;-82
2023/07/08 04:06:21;;;;;;;10.35;5.28;;;;;;;17.86;100.00;93201.19;4936502;29;20083;-82
2023/07/08 04:08:48;;;;;;;11.98;6.00;;;;;;;17.86;100.00;93187.19;4919256;29;20032;-81
2023/07/08 04:11:18;;;;;;;9.82;5.85;;;;;;;17.83;100.00;93177.19;4935682;29;20044;-81
2023/07/08 04:13:43;;;;;;;12.75;6.22;;;;;;;17.81;100.00;93171.41;4936147;29;20035;-81
2023/07/08 04:16:29;;;;;;;12.38;5.63;;;;;;;17.79;100.00;93168.31;4937563;29;20059;-80
2023/07/08 04:18:56;;;;;;;12.57;5.50;;;;;;;17.72;100.00;93162.69;4939967;29;20039;-82
2023/07/08 04:21:24;;;;;;;8.00;5.25;;;;;;;17.68;100.00;93158.03;4939955;29;20409;-82
2023/07/08 04:23:51;;;;;;;9.85;6.20;;;;;;;17.67;100.00;93171.59;4923869;29;20142;-82
2023/07/08 04:26:18;;;;;;;11.48;6.90;;;;;;;17.59;100.00;93165.22;4923010;29;20034;-81
2023/07/08 04:28:44;;;;;;;13.65;6.70;;;;;;;17.61;100.00;93178.91;4940908;29;20071;-81
2023/07/08 04:31:10;;;;;;;10.73;5.72;;;;;;;17.61;100.00;93168.34;4939831;29;20032;-81
2023/07/08 04:33:36;;;;;;;10.90;6.43;;;;;;;17.58;100.00;93163.66;4935223;29;20442;-81
2023/07/08 04:36:02;;;;;;;16.08;6.07;;;;;;;17.58;100.00;93160.22;4910748;29;20027;-82
2023/07/08 04:38:28;;;;;;;12.25;5.85;;;;;;;17.62;100.00;93171.75;4940736;29;20486;-82
2023/07/08 04:40:54;;;;;;;9.52;5.63;;;;;;;17.61;100.00;93167.56;4938928;29;20058;-81
2023/07/08 04:43:21;;;;;;;12.95;6.50;;;;;;;17.61;100.00;93163.03;4940110;29;20039;-82
2023/07/08 04:45:52;;;;;;;11.80;6.00;;;;;;;17.58;100.00;93163.66;4939710;29;20148;-82
2023/07/08 04:48:21;;;;;;;15.60;6.33;;;;;;;17.60;100.00;93163.34;4939512;29;20048;-81
2023/07/08 04:50:50;;;;;;;10.40;6.03;;;;;;;17.58;100.00;93170.81;4940383;29;20321;-82
2023/07/08 04:53:16;;;;;;;14.57;6.30;;;;;;;17.57;100.00;93170.03;4938889;29;20024;-82
2023/07/08 04:55:49;;;;;;;9.15;5.43;;;;;;;17.58;100.00;93170.81;4932649;29;20349;-82
2023/07/08 04:58:14;;;;;;;11.40;5.80;;;;;;;17.59;100.00;93172.38;4940399;29;20101;-82
2023/07/08 05:00:40;;;;;;;10.50;5.80;;;;;;;17.58;100.00;93163.66;4939059;29;20118;-83
2023/07/08 05:03:05;;;;;;;11.50;6.03;;;;;;;17.59;100.00;93167.09;4939830;29;20040;-82
2023/07/08 05:05:31;;;;;;;9.63;6.05;;;;;;;17.56;100.00;93175.63;4932979;29;20024;-82
2023/07/08 05:07:56;;;;;;;10.90;5.72;;;;;;;17.54;100.00;93173.31;4939201;29;20044;-82
2023/07/08 05:10:22;;;;;;;11.63;6.07;;;;;;;17.57;100.00;93180.63;4939748;29;20031;-82
2023/07/08 05:12:48;;;;;;;11.70;5.80;;;;;;;17.56;100.00;93173.78;4922904;29;20036;-82
2023/07/08 05:15:15;;;;;;;12.38;5.78;;;;;;;17.58;100.00;93171.59;4938716;29;20027;-82
2023/07/08 05:17:41;;;;;;;12.32;6.40;;;;;;;17.62;100.00;93166.47;4932635;29;20036;-82
2023/07/08 05:20:09;;;;;;;13.40;5.75;;;;;;;17.70;100.00;93176.28;4907638;29;20032;-82
2023/07/08 05:22:35;;;;;;;11.25;6.53;;;;;;;17.71;100.00;93183.09;4939857;29;20027;-81
2023/07/08 05:25:01;;;;;;;12.50;6.45;;;;;;;17.75;100.00;93177.97;4922757;29;20032;-82
2023/07/08 05:27:27;;;;;;;10.27;6.05;;;;;;;17.76;100.00;93177.66;4923021;29;20052;-82
2023/07/08 05:29:53;;;;;;;13.50;6.40;;;;;;;17.78;100.00;93177.34;4939247;29;20040;-82
2023/07/08 05:32:19;;;;;;;15.80;6.70;;;;;;;17.77;100.00;93181.09;4933003;29;20082;-82
2023/07/08 05:34:45;;;;;;;13.18;6.07;;;;;;;17.79;100.00;93181.56;4934852;29;20061;-82
2023/07/08 05:37:12;;;;;;;13.30;5.95;;;;;;;17.84;100.00;93184.84;4938381;29;20533;-82
2023/07/08 05:39:37;;;;;;;10.50;5.80;;;;;;;17.86;100.00;93181.88;4937659;29;20498;-82
2023/07/08 05:42:03;;;;;;;10.02;6.00;;;;;;;17.85;100.00;93181.09;4936480;29;20039;-80
2023/07/08 05:44:29;;;;;;;10.93;5.68;;;;;;;17.84;100.00;93176.13;4933279;29;20067;-83
2023/07/08 05:46:55;;;;;;;14.18;5.93;;;;;;;17.86;100.00;93187.19;4934618;29;20051;-83
2023/07/08 05:49:20;;;;;;;12.70;5.47;;;;;;;17.87;100.00;93186.06;4933165;29;20083;-83
2023/07/08 05:51:46;;;;;;;12.30;5.68;;;;;;;17.89;100.00;93189.19;4915090;29;20040;-83
2023/07/08 05:54:12;;;;;;;13.07;6.20;;;;;;;17.88;100.00;93187.66;4929720;29;20036;-83
2023/07/08 05:56:38;;;;;;;11.77;6.22;;;;;;;17.91;100.00;93191.53;4939679;29;20047;-83
2023/07/08 05:59:03;;;;;;;10.68;5.40;;;;;;;17.94;100.00;93194.31;4922945;29;20048;-83
2023/07/08 06:01:30;;;;;;;8.40;5.15;;;;;;;17.96;100.00;93183.41;4939873;29;20063;-83
2023/07/08 06:03:59;;;;;;;10.55;5.68;;;;;;;18.00;100.00;93190.41;4940087;29;20034;-83
2023/07/08 06:06:28;;;;;;;9.57;5.50;;;;;;;18.04;100.00;93199.31;4928574;29;20536;-81
2023/07/08 06:08:54;;;;;;;11.00;6.07;;;;;;;18.10;100.00;93203.34;4948846;29;20042;-83
2023/07/08 06:11:21;;;;;;;10.50;5.82;;;;;;;18.13;100.00;93198.50;4943817;29;20043;-81
2023/07/08 06:13:47;;;;;;;12.48;6.00;;;;;;;18.20;100.00;93198.81;4930540;29;20044;-82
2023/07/08 06:16:13;;;;;;;10.15;5.45;;;;;;;18.22;100.00;93204.56;4938662;29;20046;-81
2023/07/08 06:18:39;;;;;;;10.48;5.45;;;;;;;18.25;100.00;93209.22;4937726;29;20462;-82
2023/07/08 06:21:05;;;;;;;12.70;5.70;;;;;;;18.26;100.00;93208.13;4913848;29;20050;-81
2023/07/08 06:23:31;;;;;;;10.07;5.57;;;;;;;18.28;100.00;93208.59;4929900;29;20044;-81
2023/07/08 06:25:56;;;;;;;11.70;6.70;;;;;;;18.31;100.00;93200.03;4935883;29;20524;-82
2023/07/08 06:28:24;;;;;;;12.77;5.03;;;;;;;18.33;100.00;93197.84;4911891;29;20035;-83
2023/07/08 06:30:50;;;;;;;12.63;5.90;;;;;;;18.42;100.00;93195.94;4929621;29;20580;-81
2023/07/08 06:33:16;;;;;;;10.73;5.90;;;;;;;18.49;100.00;93200.75;4930340;29;20035;-83
2023/07/08 06:35:42;;;;;;;11.43;6.07;;;;;;;18.55;100.00;93182.78;4932404;29;20129;-82
2023/07/08 06:38:07;;;;;;;10.63;5.43;;;;;;;18.64;100.00;93191.47;4930330;29;20070;-83
2023/07/08 06:40:34;;;;;;;12.38;6.72;;;;;;;18.69;100.00;93189.44;4931131;29;20043;-83
2023/07/08 06:43:00;;;;;;;12.30;6.25;;;;;;;18.83;100.00;93191.09;4931046;29;20030;-81
2023/07/08 06:45:34;;;;;;;10.20;6.05;;;;;;;18.80;100.00;93197.84;4934694;29;20529;-82
2023/07/08 06:48:00;;;;;;;11.38;6.10;;;;;;;18.86;100.00;93193.88;4918689;29;20055;-82
2023/07/08 06:50:25;;;;;;;13.65;7.05;;;;;;;18.89;100.00;93203.06;4934485;29;20051;-81
2023/07/08 06:52:51;;;;;;;14.00;6.05;;;;;;;18.97;100.00;93204.91;4937332;29;20519;-80
2023/07/08 06:55:17;;;;;;;11.57;6.30;;;;;;;19.05;100.00;93216.56;4936354;29;20023;-81
2023/07/08 06:57:42;;;;;;;13.93;6.25;;;;;;;19.07;100.00;93227.63;4937712;29;20055;-81
2023/07/08 07:00:10;;;;;;;15.90;6.10;;;;;;;19.05;100.00;93227.19;4936716;29;20023;-81
2023/07/08 07:02:36;;;;;;;11.35;6.22;;;;;;;19.10;100.00;93235.75;4914967;29;20103;-81
2023/07/08 07:05:03;;;;;;;11.25;6.20;;;;;;;19.11;100.00;93242.59;4918099;29;20781;-82
2023/07/08 07:07:29;;;;;;;11.80;6.50;;;;;;;19.21;100.00;93246.00;4920061;29;20162;-81
2023/07/08 07:09:55;;;;;;;15.02;6.30;;;;;;;19.20;100.00;93250.50;4936521;29;20059;-82
2023/07/08 07:12:21;;;;;;;12.93;6.20;;;;;;;19.23;100.00;93249.88;4934521;29;20039;-83
2023/07/08 07:14:49;;;;;;;11.02;6.45;;;;;;;19.31;100.00;93246.38;4934148;29;20482;-82
2023/07/08 07:17:15;;;;;;;11.55;6.63;;;;;;;19.35;100.00;93236.69;4936189;29;20036;-82
2023/07/08 07:19:40;;;;;;;15.13;6.78;;;;;;;19.52;100.00;93235.00;4919332;29;20053;-82
2023/07/08 07:22:06;;;;;;;12.40;5.93;;;;;;;19.82;100.00;93242.97;4938084;29;20462;-81
2023/07/08 07:24:32;;;;;;;10.75;6.05;;;;;;;20.24;100.00;93242.88;4932353;29;20059;-82
2023/07/08 07:26:58;;;;;;;12.82;6.32;;;;;;;20.59;100.00;93244.13;4930737;29;20032;-81
2023/07/08 07:29:23;;;;;;;10.65;6.32;;;;;;;20.75;100.00;93248.78;4928268;29;20035;-82
2023/07/08 07:31:51;;;;;;;11.57;6.75;;;;;;;20.84;100.00;93249.47;4929230;29;20131;-80
2023/07/08 07:34:16;;;;;;;13.90;6.35;;;;;;;20.82;100.00;93245.59;4928992;29;20039;-81
2023/07/08 07:36:42;;;;;;;12.98;6.50;;;;;;;20.74;100.00;93255.25;4929456;29;20157;-82
2023/07/08 07:39:08;;;;;;;13.18;5.78;;;;;;;20.71;100.00;93253.22;4933528;29;20067;-80
2023/07/08 07:41:33;;;;;;;16.00;6.47;;;;;;;20.27;100.00;93252.88;4929582;29;20040;-81
2023/07/08 07:43:59;;;;;;;12.45;7.43;;;;;;;20.03;100.00;93249.03;4933288;29;20043;-82
2023/07/08 07:46:24;;;;;;;14.75;6.65;;;;;;;19.88;100.00;93254.94;4935711;29;20043;-81
2023/07/08 07:48:53;;;;;;;13.13;6.78;;;;;;;19.72;100.00;93250.22;4928052;29;20051;-80
2023/07/08 07:51:19;;;;;;;11.63;6.90;;;;;;;19.68;100.00;93254.59;4932517;29;20318;-80
2023/07/08 07:53:44;;;;;;;480.60;63.38;;;;;;;19.66;100.00;93251.47;4936888;29;20035;-81
2023/07/08 07:56:10;;;;;;;23.02;7.70;;;;;;;19.61;100.00;93241.06;4939583;28;20032;-82
2023/07/08 07:58:36;;;;;;;18.17;6.55;;;;;;;19.71;100.00;93248.66;4938088;29;20494;-80
2023/07/08 08:01:01;;;;;;;12.23;6.10;;;;;;;19.75;100.00;93251.44;4938249;29;20095;-81
2023/07/08 08:03:27;;;;;;;11.60;6.63;;;;;;;19.78;100.00;93247.38;4935016;29;20636;-81
2023/07/08 08:05:53;;;;;;;12.27;5.78;;;;;;;19.81;100.00;93249.38;4930973;29;20650;-81
2023/07/08 08:08:19;;;;;;;36.78;8.90;;;;;;;19.82;100.00;93254.34;4929599;29;20028;-82
2023/07/08 08:10:45;;;;;;;18.33;7.25;;;;;;;19.88;100.00;93254.94;4934589;29;20036;-81
2023/07/08 08:13:11;;;;;;;11.43;6.38;;;;;;;19.88;100.00;93261.03;4933224;29;20091;-80
2023/07/08 08:15:38;;;;;;;13.93;6.43;;;;;;;19.87;100.00;93262.13;4928400;29;20044;-81
2023/07/08 08:18:03;;;;;;;11.15;6.05;;;;;;;19.91;100.00;93262.25;4912854;29;20486;-80
2023/07/08 08:20:29;;;;;;;13.82;6.95;;;;;;;19.94;100.00;93264.25;4929253;29;20032;-80
2023/07/08 08:22:55;;;;;;;11.73;6.20;;;;;;;20.01;100.00;93264.50;4928730;29;20126;-81
2023/07/08 08:25:23;;;;;;;14.10;6.30;;;;;;;20.01;100.00;93267.16;4915464;29;20035;-80
2023/07/08 08:27:49;;;;;;;14.50;6.63;;;;;;;20.07;100.00;93265.88;4933558;29;20035;-83
2023/07/08 08:30:15;;;;;;;17.38;6.30;;;;;;;20.16;100.00;93263.91;4937930;29;20083;-80
2023/07/08 08:32:41;;;;;;;12.90;7.35;;;;;;;20.18;100.00;93267.03;4938780;29;20091;-83
2023/07/08 08:35:07;;;;;;;12.32;6.78;;;;;;;20.06;100.00;93267.00;4935701;29;20051;-81
2023/07/08 08:37:33;;;;;;;14.75;7.07;;;;;;;19.99;100.00;93269.38;4936720;29;20043;-81
2023/07/08 08:39:58;;;;;;;15.38;7.68;;;;;;;19.90;100.00;93271.31;4917530;29;20059;-80
2023/07/08 08:42:33;;;;;;;16.50;7.82;;;;;;;19.90;100.00;93279.28;4902290;29;20042;-81
2023/07/08 08:45:02;;;;;;;16.33;7.63;;;;;;;19.93;100.00;93276.78;4933481;29;20046;-80
2023/07/08 08:47:45;;;;;;;12.80;6.95;;;;;;;20.07;100.00;93281.03;4881446;29;1363690;-81
2023/07/08 08:50:25;;;;;;;15.32;7.40;;;;;;;20.32;100.00;93290.66;4934377;29;20090;-80
2023/07/08 08:52:54;;;;;;;15.77;7.25;;;;;;;20.65;100.00;93281.94;4932678;29;20036;-81
2023/07/08 08:55:23;;;;;;;14.55;6.60;;;;;;;20.87;100.00;93290.59;4929850;29;20445;-80
2023/07/08 08:58:07;;;;;;;11.73;6.40;;;;;;;21.34;100.00;93290.94;4932854;29;20118;-81
2023/07/08 09:00:55;;;;;;;11.85;6.32;;;;;;;21.69;100.00;93285.19;4934450;29;20028;-81
2023/07/08 09:03:53;;;;;;;13.25;7.22;;;;;;;21.74;100.00;93276.97;4919777;29;20458;-82
2023/07/08 09:06:34;;;;;;;17.60;7.45;;;;;;;22.08;100.00;93277.53;4924502;29;20052;-81
2023/07/08 09:09:16;;;;;;;12.77;6.95;;;;;;;21.73;100.00;93288.75;4930907;29;20046;-81
2023/07/08 09:11:50;;;;;;;15.32;7.10;;;;;;;22.07;100.00;93286.66;4932303;29;20561;-80
2023/07/08 09:14:23;;;;;;;14.48;6.55;;;;;;;21.92;100.00;93282.03;4929324;29;20028;-80
2023/07/08 09:16:58;;;;;;;13.40;6.22;;;;;;;21.89;100.00;93285.38;4933270;29;20040;-81
2023/07/08 09:19:28;;;;;;;12.02;6.35;;;;;;;21.98;100.00;93292.13;4935562;29;20054;-82
2023/07/08 09:22:01;;;;;;;13.25;6.10;;;;;;;21.89;100.00;93286.16;4914807;29;20075;-81
2023/07/08 09:24:42;;;;;;;13.63;6.63;;;;;;;21.88;100.00;93286.47;4936558;29;20402;-81
2023/07/08 09:27:08;;;;;;;16.08;6.97;;;;;;;21.68;100.00;93296.19;4921349;29;20032;-81
2023/07/08 09:29:34;;;;;;;14.68;6.72;;;;;;;21.50;100.00;93298.31;4931481;29;20038;-81
2023/07/08 09:32:26;;;;;;;14.50;6.03;;;;;;;21.76;100.00;93296.06;4932349;29;20375;-82
2023/07/08 09:35:01;;;;;;;;;;;;;;;21.77;100.00;93304.81;4933934;29;20098;-80
2023/07/08 09:37:32;;;;;;;12.50;6.40;;;;;;;22.15;100.00;93295.63;4937895;29;21065;-81
2023/07/08 09:40:00;;;;;;;12.57;6.27;;;;;;;22.56;100.00;93299.03;4920885;29;20040;-81
2023/07/08 09:42:32;;;;;;;20.70;7.53;;;;;;;22.40;100.00;93291.00;4937554;29;20283;-80
2023/07/08 09:45:10;;;;;;;14.50;7.28;;;;;;;22.43;100.00;93287.66;4935222;29;20039;-82
2023/07/08 09:47:39;;;;;;;14.77;6.97;;;;;;;22.58;100.00;93294.91;4927250;29;20055;-82
2023/07/08 09:50:18;;;;;;;11.77;6.05;;;;;;;22.98;100.00;93303.91;4936780;29;20039;-82
2023/07/08 09:52:44;;;;;;;13.50;7.00;;;;;;;22.74;100.00;93302.16;4934343;29;20186;-81
2023/07/08 09:55:13;;;;;;;13.68;7.25;;;;;;;22.79;100.00;93313.38;4936358;29;20054;-81
2023/07/08 09:57:40;;;;;;;11.15;6.40;;;;;;;22.80;100.00;93317.59;4937629;29;20426;-81
2023/07/08 10:00:15;;;;;;;12.63;6.82;;;;;;;23.04;100.00;93315.94;4936489;29;20501;-81
2023/07/08 10:02:54;;;;;;;16.85;7.60;;;;;;;23.00;100.00;93315.84;4914094;29;21488;-84
2023/07/08 10:05:29;;;;;;;13.57;6.97;;;;;;;23.40;100.00;93312.22;4934696;29;20032;-81
2023/07/08 10:07:56;;;;;;;12.63;6.63;;;;;;;23.19;100.00;93317.84;4941467;29;20032;-81
2023/07/08 10:10:33;;;;;;;21.15;7.55;;;;;;;22.79;100.00;93320.63;4925990;29;20118;-83
2023/07/08 10:13:11;;;;;;;12.35;6.57;;;;;;;22.63;100.00;93312.59;4944733;29;20116;-83
2023/07/08 10:15:46;;;;;;;15.13;7.10;;;;;;;22.22;100.00;93309.16;4941705;29;20074;-82
2023/07/08 10:18:17;;;;;;;16.15;7.10;;;;;;;22.04;100.00;93313.97;4942397;29;20043;-83
2023/07/08 10:20:59;;;;;;;17.00;7.38;;;;;;;22.33;100.00;93312.13;4935470;29;20059;-83
2023/07/08 10:23:50;;;;;;;15.85;7.78;;;;;;;22.22;100.00;93309.97;4939644;29;20023;-83
2023/07/08 10:26:28;;;;;;;21.15;7.53;;;;;;;22.16;100.00;93313.19;4934221;29;20065;-82
2023/07/08 10:29:14;;;;;;;13.27;7.70;;;;;;;22.23;100.00;93316.06;4935868;29;20039;-80
2023/07/08 10:31:53;;;;;;;13.35;6.75;;;;;;;22.51;100.00;93310.72;4934092;29;20066;-80
2023/07/08 10:34:43;;;;;;;15.18;7.63;;;;;;;22.66;100.00;93319.91;4936636;29;20039;-79
2023/07/08 10:37:31;;;;;;;13.57;7.18;;;;;;;22.75;100.00;93309.06;4931552;29;20090;-80
2023/07/08 10:40:33;;;;;;;14.43;7.20;;;;;;;22.80;100.00;93314.16;4931583;29;20524;-79
2023/07/08 10:42:59;;;;;;;14.32;7.30;;;;;;;22.83;100.00;93302.78;4941134;29;20152;-79
2023/07/08 10:45:45;;;;;;;15.88;7.93;;;;;;;23.14;100.00;93303.94;4912626;29;20119;-81
2023/07/08 10:48:26;;;;;;;16.75;7.20;;;;;;;23.22;100.00;93306.44;4912326;29;20514;-80
2023/07/08 10:50:58;;;;;;;12.18;6.85;;;;;;;23.26;100.00;93301.97;4931798;29;20047;-80
2023/07/08 10:53:35;;;;;;;14.65;6.13;;;;;;;23.38;100.00;93300.34;4931641;29;20166;-80
2023/07/08 10:56:16;;;;;;;16.08;6.03;;;;;;;23.30;100.00;93298.59;4931188;29;20028;-79
2023/07/08 10:59:09;;;;;;;11.07;6.30;;;;;;;23.21;100.00;93299.53;4930644;29;20288;-82
2023/07/08 11:01:40;;;;;;;10.70;5.95;;;;;;;23.55;100.00;93291.16;4930251;29;20173;-80
2023/07/08 11:04:11;;;;;;;10.40;5.90;;;;;;;23.87;100.00;93292.66;4936073;29;20047;-81
2023/07/08 11:06:56;;;;;;;13.60;6.72;;;;;;;23.70;100.00;93287.69;4937685;29;20046;-83
2023/07/08 11:09:29;;;;;;;12.35;6.40;;;;;;;23.73;100.00;93291.56;4934185;29;20035;-82
2023/07/08 11:12:09;;;;;;;14.05;7.20;;;;;;;23.42;100.00;93293.94;4931637;29;20134;-82
2023/07/08 11:14:45;;;;;;;14.10;7.13;;;;;;;23.42;100.00;93287.84;4935464;29;20040;-81
2023/07/08 11:17:19;;;;;;;12.90;6.60;;;;;;;23.34;100.00;93292.22;4935135;29;20047;-80
2023/07/08 11:20:11;;;;;;;15.88;6.20;;;;;;;23.75;100.00;93284.00;4935197;29;20044;-80
2023/07/08 11:22:45;;;;;;;12.30;6.15;;;;;;;23.75;100.00;93279.41;4937309;29;20035;-84
2023/07/08 11:25:18;;;;;;;12.45;6.20;;;;;;;23.73;100.00;93281.63;4934031;29;20055;-82
2023/07/08 11:27:46;;;;;;;13.07;6.43;;;;;;;23.28;100.00;93285.59;4932828;29;20051;-82